createdAt,value
2023-02-23T00:00:01.144Z,63.51
2023-02-23T00:03:04.546Z,63.39
2023-02-23T00:06:08.626Z,63.28
2023-02-23T00:09:24.575Z,63.20
2023-02-23T00:12:27.404Z,63.09
2023-02-23T00:15:29.940Z,63.25
2023-02-23T00:18:45.036Z,63.34
2023-02-23T00:21:47.459Z,62.99
2023-02-23T00:24:50.317Z,62.93
2023-02-23T00:27:52.913Z,63.04
2023-02-23T00:30:55.617Z,62.70
2023-02-23T00:34:04.223Z,62.63
2023-02-23T00:37:08.642Z,61.48
2023-02-23T00:40:16.593Z,60.89
2023-02-23T00:43:20.126Z,60.47
2023-02-23T00:46:27.090Z,60.28
2023-02-23T00:49:29.720Z,60.42
2023-02-23T00:52:32.947Z,60.16
2023-02-23T00:55:41.394Z,60.02
2023-02-23T00:58:45.115Z,60.15
2023-02-23T01:01:49.026Z,60.25
2023-02-23T01:04:52.598Z,60.77
2023-02-23T01:07:55.274Z,60.65
2023-02-23T01:10:58.819Z,60.28
2023-02-23T01:14:01.942Z,60.09
2023-02-23T01:17:04.358Z,59.93
2023-02-23T01:20:36.476Z,60.39
2023-02-23T01:23:38.795Z,60.29
2023-02-23T01:26:44.658Z,59.96
2023-02-23T01:29:47.008Z,60.19
2023-02-23T01:32:51.039Z,59.92
2023-02-23T01:36:01.859Z,59.69
2023-02-23T01:39:07.652Z,59.77
2023-02-23T01:42:13.811Z,59.61
2023-02-23T01:45:37.650Z,59.39
2023-02-23T01:48:40.672Z,59.97
2023-02-23T01:51:49.264Z,59.80
2023-02-23T01:54:55.831Z,59.63
2023-02-23T01:58:15.482Z,59.89
2023-02-23T02:01:19.063Z,59.69
2023-02-23T02:04:25.331Z,59.83
2023-02-23T02:07:30.954Z,59.92
2023-02-23T02:10:39.788Z,59.52
2023-02-23T02:13:42.494Z,59.66
2023-02-23T02:17:02.313Z,59.98
2023-02-23T02:20:26.594Z,59.72
2023-02-23T02:23:51.619Z,59.60
2023-02-23T02:27:13.622Z,59.79
2023-02-23T02:30:39.434Z,59.46
2023-02-23T02:33:58.393Z,59.38
2023-02-23T02:37:14.408Z,59.69
2023-02-23T02:40:28.308Z,59.82
2023-02-23T02:43:58.499Z,59.97
2023-02-23T02:47:10.191Z,60.59
2023-02-23T02:50:30.825Z,60.05
2023-02-23T02:53:43.876Z,59.95
2023-02-23T02:56:49.730Z,59.92
2023-02-23T03:00:11.176Z,60.07
2023-02-23T03:03:51.192Z,60.01
2023-02-23T03:07:20.322Z,59.98
2023-02-23T03:10:53.805Z,59.86
2023-02-23T03:14:41.194Z,60.04
2023-02-23T03:18:07.893Z,60.17
2023-02-23T03:21:47.977Z,60.37
2023-02-23T03:25:28.132Z,60.11
2023-02-23T03:28:54.102Z,59.98
2023-02-23T03:32:29.507Z,60.32
2023-02-23T03:36:27.071Z,60.18
2023-02-23T03:39:56.163Z,60.03
2023-02-23T03:43:19.946Z,59.95
2023-02-23T03:46:45.487Z,59.84
2023-02-23T03:50:09.005Z,59.97
2023-02-23T03:53:33.089Z,59.88
2023-02-23T03:56:58.162Z,60.02
2023-02-23T04:00:22.862Z,60.05
2023-02-23T04:03:46.250Z,60.13
2023-02-23T04:07:08.740Z,60.11
2023-02-23T04:10:30.209Z,60.19
2023-02-23T04:13:35.661Z,60.08
2023-02-23T04:16:39.913Z,59.96
2023-02-23T04:19:55.455Z,59.91
2023-02-23T04:22:58.547Z,59.93
2023-02-23T04:26:00.967Z,60.08
2023-02-23T04:29:03.647Z,60.41
2023-02-23T04:32:06.909Z,60.38
2023-02-23T04:35:10.004Z,60.60
2023-02-23T04:38:12.331Z,60.47
2023-02-23T04:41:14.982Z,60.58
2023-02-23T04:44:17.862Z,60.76
2023-02-23T04:47:20.613Z,61.24
2023-02-23T04:50:23.268Z,61.26
2023-02-23T04:53:27.153Z,61.11
2023-02-23T04:56:30.641Z,61.13
2023-02-23T04:59:33.458Z,61.34
2023-02-23T05:02:35.837Z,61.44
2023-02-23T05:05:39.757Z,61.44
2023-02-23T05:08:42.111Z,61.44
2023-02-23T05:11:45.052Z,61.57
2023-02-23T05:14:47.437Z,61.58
2023-02-23T05:17:50.134Z,61.59
2023-02-23T05:20:53.467Z,61.67
2023-02-23T05:23:57.307Z,61.61
2023-02-23T05:27:00.292Z,61.51
2023-02-23T05:30:03.224Z,61.47
2023-02-23T05:33:05.697Z,61.45
2023-02-23T05:36:18.814Z,61.41
2023-02-23T05:39:21.615Z,61.37
2023-02-23T05:42:24.346Z,61.00
2023-02-23T05:45:26.775Z,60.85
2023-02-23T05:48:29.535Z,60.51
2023-02-23T05:51:34.272Z,60.56
2023-02-23T05:54:36.913Z,60.49
2023-02-23T05:57:41.215Z,60.38
2023-02-23T06:00:43.800Z,60.46
2023-02-23T06:03:47.479Z,60.33
2023-02-23T06:06:50.169Z,60.13
2023-02-23T06:09:52.825Z,60.12
2023-02-23T06:12:55.269Z,59.94
2023-02-23T06:15:59.407Z,59.95
2023-02-23T06:19:01.753Z,59.95
2023-02-23T06:22:04.453Z,59.71
2023-02-23T06:25:12.658Z,59.56
2023-02-23T06:28:15.732Z,59.30
2023-02-23T06:31:18.361Z,59.70
2023-02-23T06:34:21.152Z,59.75
2023-02-23T06:37:23.910Z,59.75
2023-02-23T06:40:26.736Z,60.46
2023-02-23T06:43:29.645Z,59.58
2023-02-23T06:46:33.757Z,59.44
2023-02-23T06:49:37.021Z,58.95
2023-02-23T06:52:39.777Z,59.68
2023-02-23T06:55:42.168Z,59.64
2023-02-23T06:58:45.320Z,59.64
2023-02-23T07:01:47.697Z,59.54
2023-02-23T07:04:50.367Z,59.11
2023-02-23T07:07:52.740Z,58.75
2023-02-23T07:10:56.766Z,58.78
2023-02-23T07:13:59.517Z,58.38
2023-02-23T07:17:02.229Z,58.29
2023-02-23T07:20:05.070Z,58.25
2023-02-23T07:23:07.813Z,57.79
2023-02-23T07:26:10.196Z,57.98
2023-02-23T07:29:13.662Z,58.11
2023-02-23T07:32:16.120Z,57.62
2023-02-23T07:35:19.080Z,57.99
2023-02-23T07:38:21.438Z,57.89
2023-02-23T07:41:24.153Z,57.54
2023-02-23T07:44:26.679Z,57.53
2023-02-23T07:47:31.259Z,57.71
2023-02-23T07:50:33.552Z,57.40
2023-02-23T07:53:36.262Z,57.18
2023-02-23T07:56:38.666Z,56.91
2023-02-23T07:59:41.555Z,56.81
2023-02-23T08:02:44.195Z,56.70
2023-02-23T08:05:46.788Z,56.68
2023-02-23T08:08:49.356Z,56.37
2023-02-23T08:11:51.996Z,56.48
2023-02-23T08:14:54.395Z,56.07
2023-02-23T08:17:57.762Z,55.90
2023-02-23T08:21:01.857Z,55.64
2023-02-23T08:24:04.640Z,55.60
2023-02-23T08:27:07.054Z,55.70
2023-02-23T08:30:10.805Z,55.40
2023-02-23T08:33:13.227Z,55.24
2023-02-23T08:36:15.877Z,54.67
2023-02-23T08:39:18.929Z,54.70
2023-02-23T08:42:21.838Z,54.50
2023-02-23T08:45:24.172Z,53.88
2023-02-23T08:48:26.926Z,53.13
2023-02-23T08:51:29.296Z,53.35
2023-02-23T08:54:31.926Z,53.88
2023-02-23T08:57:35.612Z,53.79
2023-02-23T09:00:38.734Z,53.44
2023-02-23T09:03:41.111Z,53.25
2023-02-23T09:06:44.560Z,52.55
2023-02-23T09:09:46.932Z,52.36
2023-02-23T09:12:49.583Z,52.19
2023-02-23T09:15:51.914Z,51.85
2023-02-23T09:18:54.837Z,51.76
2023-02-23T09:21:57.204Z,51.82
2023-02-23T09:24:59.862Z,51.70
2023-02-23T09:28:02.287Z,51.21
2023-02-23T09:31:07.637Z,51.63
2023-02-23T09:34:10.685Z,51.35
2023-02-23T09:37:13.375Z,51.01
2023-02-23T09:40:19.336Z,50.58
2023-02-23T09:43:39.943Z,50.77
2023-02-23T09:46:53.714Z,50.95
2023-02-23T09:49:59.021Z,51.02
2023-02-23T09:53:23.653Z,50.37
2023-02-23T09:56:46.422Z,50.53
2023-02-23T09:59:48.844Z,50.03
2023-02-23T10:03:10.929Z,50.25
2023-02-23T10:06:18.019Z,49.88
2023-02-23T10:09:38.921Z,49.64
2023-02-23T10:12:47.598Z,49.62
2023-02-23T10:16:02.246Z,49.46
2023-02-23T10:19:20.158Z,49.69
2023-02-23T10:22:23.301Z,49.14
2023-02-23T10:25:29.932Z,49.20
2023-02-23T10:28:36.601Z,48.87
2023-02-23T10:31:48.119Z,48.66
2023-02-23T10:34:56.536Z,48.63
2023-02-23T10:38:01.995Z,48.65
2023-02-23T10:41:05.837Z,48.74
2023-02-23T10:44:21.875Z,48.84
2023-02-23T10:47:34.816Z,48.65
2023-02-23T10:50:39.305Z,48.90
2023-02-23T10:53:41.632Z,48.72
2023-02-23T10:56:47.127Z,48.91
2023-02-23T11:00:28.806Z,48.89
2023-02-23T11:04:04.337Z,48.79
2023-02-23T11:07:21.434Z,49.00
2023-02-23T11:10:27.517Z,49.39
2023-02-23T11:13:38.741Z,49.03
2023-02-23T11:16:41.778Z,48.83
2023-02-23T11:19:45.376Z,48.83
2023-02-23T11:22:49.172Z,48.82
2023-02-23T11:26:00.193Z,49.03
2023-02-23T11:29:19.640Z,49.13
2023-02-23T11:32:29.066Z,48.66
2023-02-23T11:35:32.549Z,49.38
2023-02-23T11:38:35.198Z,48.95
2023-02-23T11:41:37.952Z,48.86
2023-02-23T11:44:41.636Z,49.07
2023-02-23T11:47:50.805Z,48.98
2023-02-23T11:50:54.844Z,48.92
2023-02-23T11:53:58.876Z,48.63
2023-02-23T11:57:06.307Z,48.63
2023-02-23T12:00:12.949Z,48.70
2023-02-23T12:03:22.670Z,48.54
2023-02-23T12:06:37.125Z,48.67
2023-02-23T12:09:40.452Z,48.41
2023-02-23T12:13:13.098Z,48.43
2023-02-23T12:16:53.606Z,48.52
2023-02-23T12:20:25.264Z,48.81
2023-02-23T12:23:33.283Z,48.79
2023-02-23T12:27:06.826Z,48.63
2023-02-23T12:30:21.165Z,48.78
2023-02-23T12:33:48.570Z,49.06
2023-02-23T12:36:59.871Z,49.20
2023-02-23T12:40:36.825Z,49.16
2023-02-23T12:43:52.964Z,49.37
2023-02-23T12:47:03.669Z,49.45
2023-02-23T12:50:17.971Z,49.60
2023-02-23T12:53:36.929Z,49.45
2023-02-23T12:56:57.405Z,49.43
2023-02-23T13:00:32.091Z,49.14
2023-02-23T13:03:55.205Z,49.16
2023-02-23T13:07:22.814Z,49.46
2023-02-23T13:10:55.468Z,49.52
2023-02-23T13:14:14.408Z,49.68
2023-02-23T13:17:48.229Z,49.74
2023-02-23T13:20:58.948Z,49.67
2023-02-23T13:24:13.091Z,49.07
2023-02-23T13:27:27.302Z,48.99
2023-02-23T13:30:37.046Z,48.95
2023-02-23T13:33:44.264Z,48.77
2023-02-23T13:36:50.491Z,48.49
2023-02-23T13:40:31.119Z,48.62
2023-02-23T13:43:39.407Z,48.70
2023-02-23T13:47:05.635Z,48.45
2023-02-23T13:50:31.729Z,48.36
2023-02-23T13:53:39.926Z,48.03
2023-02-23T13:56:48.370Z,48.22
2023-02-23T13:59:51.520Z,48.23
2023-02-23T14:02:54.499Z,48.12
2023-02-23T14:06:00.415Z,48.29
2023-02-23T14:09:23.908Z,48.42
2023-02-23T14:12:39.907Z,48.52
2023-02-23T14:15:53.645Z,48.83
2023-02-23T14:19:30.769Z,48.96
2023-02-23T14:22:34.799Z,49.09
2023-02-23T14:25:38.007Z,49.26
2023-02-23T14:28:43.277Z,49.04
2023-02-23T14:32:04.920Z,49.17
2023-02-23T14:35:32.888Z,48.99
2023-02-23T14:38:47.982Z,49.28
2023-02-23T14:41:56.744Z,49.16
2023-02-23T14:45:05.895Z,49.07
2023-02-23T14:48:17.168Z,48.91
2023-02-23T14:51:32.296Z,49.12
2023-02-23T14:54:37.907Z,49.26
2023-02-23T14:57:44.117Z,49.30
2023-02-23T15:00:46.580Z,50.14
2023-02-23T15:04:12.857Z,50.08
2023-02-23T15:07:24.071Z,50.16
2023-02-23T15:10:37.207Z,50.58
2023-02-23T15:13:48.171Z,50.92
2023-02-23T15:16:51.425Z,50.71
2023-02-23T15:23:21.530Z,51.08
2023-02-23T15:26:33.545Z,51.48
2023-02-23T15:29:36.170Z,51.71
2023-02-23T15:32:38.828Z,51.86
2023-02-23T15:36:09.495Z,51.97
2023-02-23T15:39:17.538Z,51.98
2023-02-23T15:42:45.089Z,52.11
2023-02-23T15:45:53.576Z,52.07
2023-02-23T15:49:03.306Z,52.40
2023-02-23T15:52:19.040Z,52.59
2023-02-23T15:55:26.959Z,52.67
2023-02-23T15:58:32.596Z,52.61
2023-02-23T16:01:42.919Z,52.63
2023-02-23T16:04:52.752Z,52.63
2023-02-23T16:08:23.794Z,52.69
2023-02-23T16:11:30.992Z,52.85
2023-02-23T16:14:45.323Z,52.81
2023-02-23T16:18:11.704Z,52.81
2023-02-23T16:21:21.562Z,52.94
2023-02-23T16:24:27.863Z,52.80
2023-02-23T16:27:31.368Z,53.00
2023-02-23T16:30:43.572Z,52.90
2023-02-23T16:34:01.588Z,52.92
2023-02-23T16:37:18.042Z,53.05
2023-02-23T16:40:20.640Z,52.97
2023-02-23T16:43:23.766Z,53.14
2023-02-23T16:46:48.130Z,53.11
2023-02-23T16:49:51.592Z,53.23
2023-02-23T16:52:55.148Z,53.05
2023-02-23T16:56:00.999Z,53.08
2023-02-23T16:59:04.787Z,53.21
2023-02-23T17:02:13.796Z,53.24
2023-02-23T17:05:18.974Z,53.15
2023-02-23T17:08:21.971Z,53.19
2023-02-23T17:11:24.331Z,53.25
2023-02-23T17:14:28.334Z,53.28
2023-02-23T17:17:31.492Z,53.40
2023-02-23T17:20:34.460Z,53.36
2023-02-23T17:23:42.695Z,53.37
2023-02-23T17:26:45.768Z,53.44
2023-02-23T17:29:48.152Z,53.48
2023-02-23T17:32:52.321Z,53.18
2023-02-23T17:35:54.881Z,53.16
2023-02-23T17:39:00.942Z,53.36
2023-02-23T17:42:03.413Z,53.57
2023-02-23T17:45:08.018Z,53.62
2023-02-23T17:48:10.320Z,53.63
2023-02-23T17:51:16.699Z,53.56
2023-02-23T17:54:21.847Z,53.68
2023-02-23T17:57:25.509Z,53.64
2023-02-23T18:00:28.803Z,53.65
2023-02-23T18:03:34.190Z,53.56
2023-02-23T18:06:36.599Z,53.81
2023-02-23T18:09:39.622Z,54.01
2023-02-23T18:12:42.029Z,54.02
2023-02-23T18:15:51.912Z,54.08
2023-02-23T18:18:56.451Z,54.27
2023-02-23T18:21:59.231Z,54.21
2023-02-23T18:25:01.793Z,54.49
2023-02-23T18:28:04.712Z,54.57
2023-02-23T18:31:07.216Z,54.93
2023-02-23T18:34:10.180Z,55.23
2023-02-23T18:37:12.555Z,55.62
2023-02-23T18:40:15.641Z,55.62
2023-02-23T18:43:18.012Z,55.61
2023-02-23T18:46:20.778Z,55.56
2023-02-23T18:49:24.907Z,55.64
2023-02-23T18:52:27.738Z,55.61
2023-02-23T18:55:30.162Z,55.73
2023-02-23T18:58:33.788Z,55.79
2023-02-23T19:01:39.250Z,55.79
2023-02-23T19:04:41.930Z,55.94
2023-02-23T19:07:44.468Z,55.62
2023-02-23T19:10:48.502Z,55.68
2023-02-23T19:13:56.196Z,55.82
2023-02-23T19:16:58.910Z,55.75
2023-02-23T19:20:01.800Z,55.85
2023-02-23T19:23:05.432Z,55.84
2023-02-23T19:26:07.862Z,56.25
2023-02-23T19:29:10.520Z,56.37
2023-02-23T19:32:18.142Z,56.32
2023-02-23T19:35:21.133Z,56.50
2023-02-23T19:38:23.455Z,56.53
2023-02-23T19:41:26.195Z,56.95
2023-02-23T19:44:29.645Z,56.77
2023-02-23T19:47:32.406Z,57.00
2023-02-23T19:50:35.938Z,57.34
2023-02-23T19:53:38.858Z,57.40
2023-02-23T19:56:41.401Z,57.57
2023-02-23T19:59:44.061Z,57.66
2023-02-23T20:02:54.627Z,57.59
2023-02-23T20:05:57.752Z,57.60
2023-02-23T20:09:02.259Z,57.54
2023-02-23T20:12:05.238Z,57.64
2023-02-23T20:15:08.931Z,57.61
2023-02-23T20:18:13.518Z,57.69
2023-02-23T20:21:19.794Z,57.81
2023-02-23T20:24:22.830Z,58.11
2023-02-23T20:27:25.501Z,57.68
2023-02-23T20:30:28.237Z,57.31
2023-02-23T20:33:31.544Z,57.37
2023-02-23T20:36:34.445Z,57.50
2023-02-23T20:39:36.909Z,57.63
2023-02-23T20:42:41.137Z,57.88
2023-02-23T20:45:44.233Z,57.79
2023-02-23T20:48:49.224Z,57.81
2023-02-23T20:51:51.858Z,57.94
2023-02-23T20:54:54.453Z,58.01
2023-02-23T20:57:56.994Z,58.00
2023-02-23T21:01:04.822Z,58.00
2023-02-23T21:04:08.523Z,57.95
2023-02-23T21:07:13.522Z,57.70
2023-02-23T21:10:16.674Z,57.73
2023-02-23T21:13:22.187Z,57.91
2023-02-23T21:16:25.871Z,57.83
2023-02-23T21:19:28.646Z,57.86
2023-02-23T21:22:31.501Z,57.87
2023-02-23T21:25:34.193Z,58.00
2023-02-23T21:28:37.766Z,57.91
2023-02-23T21:31:44.779Z,58.02
2023-02-23T21:34:47.406Z,57.94
2023-02-23T21:37:51.147Z,57.86
2023-02-23T21:40:53.610Z,57.95
2023-02-23T21:43:56.465Z,57.82
2023-02-23T21:46:58.926Z,57.87
2023-02-23T21:50:02.688Z,57.84
2023-02-23T21:53:05.493Z,57.90
2023-02-23T21:56:16.283Z,58.00
2023-02-23T21:59:19.628Z,58.10
2023-02-23T22:02:30.477Z,58.00
2023-02-23T22:05:34.690Z,58.01
2023-02-23T22:08:38.658Z,57.50
2023-02-23T22:11:47.005Z,57.55
2023-02-23T22:14:49.362Z,57.66
2023-02-23T22:17:51.976Z,57.57
2023-02-23T22:21:03.975Z,57.73
2023-02-23T22:24:07.789Z,57.74
2023-02-23T22:27:10.450Z,57.61
2023-02-23T22:30:15.002Z,57.62
2023-02-23T22:33:19.706Z,57.50
2023-02-23T22:36:23.043Z,57.64
2023-02-23T22:39:25.441Z,57.66
2023-02-23T22:42:35.339Z,57.71
2023-02-23T22:45:38.647Z,57.42
2023-02-23T22:48:45.308Z,57.37
2023-02-23T22:51:47.767Z,57.36
2023-02-23T22:54:51.223Z,57.23
2023-02-23T22:57:55.662Z,57.36
2023-02-23T23:01:09.740Z,57.51
2023-02-23T23:04:12.504Z,57.54
2023-02-23T23:07:15.164Z,57.68
2023-02-23T23:10:18.424Z,57.52
2023-02-23T23:13:21.093Z,57.87
2023-02-23T23:16:32.177Z,57.96
2023-02-23T23:19:39.059Z,58.05
2023-02-23T23:22:41.645Z,58.35
2023-02-23T23:25:47.687Z,58.48
2023-02-23T23:28:52.992Z,58.80
2023-02-23T23:31:58.780Z,58.74
2023-02-23T23:35:01.471Z,58.95
2023-02-23T23:38:06.160Z,59.28
2023-02-23T23:41:13.484Z,59.33
2023-02-23T23:44:18.118Z,59.29
2023-02-23T23:47:20.447Z,59.25
2023-02-23T23:50:26.953Z,59.37
2023-02-23T23:53:29.518Z,59.55
2023-02-23T23:56:37.444Z,59.46
2023-02-23T23:59:45.895Z,59.51
